sensor_id;sensor_type;location;lat;lon;timestamp;P1;durP1;ratioP1;P2;durP2;ratioP2
12306;SDS011;6216;51.146;7.008;2022-12-07T00:01:31;4.13;;;2.90;;
12306;SDS011;6216;51.146;7.008;2022-12-07T00:04:02;5.43;;;2.80;;
12306;SDS011;6216;51.146;7.008;2022-12-07T00:06:35;4.10;;;2.80;;
12306;SDS011;6216;51.146;7.008;2022-12-07T00:09:04;3.60;;;2.60;;
12306;SDS011;6216;51.146;7.008;2022-12-07T00:11:33;3.83;;;2.70;;
12306;SDS011;6216;51.146;7.008;2022-12-07T00:14:02;5.77;;;2.80;;
12306;SDS011;6216;51.146;7.008;2022-12-07T00:16:34;4.87;;;3.10;;
12306;SDS011;6216;51.146;7.008;2022-12-07T00:19:14;3.90;;;2.90;;
12306;SDS011;6216;51.146;7.008;2022-12-07T00:21:42;3.10;;;2.80;;
12306;SDS011;6216;51.146;7.008;2022-12-07T00:24:10;6.00;;;2.90;;
12306;SDS011;6216;51.146;7.008;2022-12-07T00:26:40;3.73;;;2.50;;
12306;SDS011;6216;51.146;7.008;2022-12-07T00:29:09;3.83;;;2.80;;
12306;SDS011;6216;51.146;7.008;2022-12-07T00:31:42;5.30;;;2.97;;
12306;SDS011;6216;51.146;7.008;2022-12-07T00:34:11;3.33;;;2.70;;
12306;SDS011;6216;51.146;7.008;2022-12-07T00:36:42;8.60;;;3.33;;
12306;SDS011;6216;51.146;7.008;2022-12-07T00:39:10;5.13;;;2.70;;
12306;SDS011;6216;51.146;7.008;2022-12-07T00:41:38;5.53;;;2.90;;
12306;SDS011;6216;51.146;7.008;2022-12-07T00:44:06;3.63;;;2.53;;
12306;SDS011;6216;51.146;7.008;2022-12-07T00:46:34;3.20;;;2.30;;
12306;SDS011;6216;51.146;7.008;2022-12-07T00:49:01;3.83;;;2.80;;
12306;SDS011;6216;51.146;7.008;2022-12-07T00:51:30;6.20;;;2.53;;
12306;SDS011;6216;51.146;7.008;2022-12-07T00:53:59;4.10;;;2.60;;
12306;SDS011;6216;51.146;7.008;2022-12-07T00:56:28;4.73;;;2.80;;
12306;SDS011;6216;51.146;7.008;2022-12-07T00:58:57;3.47;;;2.40;;
12306;SDS011;6216;51.146;7.008;2022-12-07T01:01:27;3.10;;;2.23;;
12306;SDS011;6216;51.146;7.008;2022-12-07T01:03:56;3.57;;;2.57;;
12306;SDS011;6216;51.146;7.008;2022-12-07T01:06:25;3.10;;;2.57;;
12306;SDS011;6216;51.146;7.008;2022-12-07T01:08:53;4.73;;;2.90;;
12306;SDS011;6216;51.146;7.008;2022-12-07T01:11:23;3.07;;;2.30;;
12306;SDS011;6216;51.146;7.008;2022-12-07T01:13:52;3.43;;;2.50;;
12306;SDS011;6216;51.146;7.008;2022-12-07T01:16:22;3.70;;;2.63;;
12306;SDS011;6216;51.146;7.008;2022-12-07T01:18:52;3.87;;;2.57;;
12306;SDS011;6216;51.146;7.008;2022-12-07T01:21:21;2.97;;;2.33;;
12306;SDS011;6216;51.146;7.008;2022-12-07T01:23:50;2.87;;;2.23;;
12306;SDS011;6216;51.146;7.008;2022-12-07T01:26:19;3.53;;;2.43;;
12306;SDS011;6216;51.146;7.008;2022-12-07T01:28:50;3.73;;;2.50;;
12306;SDS011;6216;51.146;7.008;2022-12-07T01:31:22;3.13;;;2.60;;
12306;SDS011;6216;51.146;7.008;2022-12-07T01:33:52;2.93;;;2.37;;
12306;SDS011;6216;51.146;7.008;2022-12-07T01:36:23;3.30;;;2.33;;
12306;SDS011;6216;51.146;7.008;2022-12-07T01:38:54;3.23;;;2.70;;
12306;SDS011;6216;51.146;7.008;2022-12-07T01:41:23;3.00;;;2.63;;
12306;SDS011;6216;51.146;7.008;2022-12-07T01:44:11;4.43;;;2.53;;
12306;SDS011;6216;51.146;7.008;2022-12-07T01:46:45;2.83;;;2.30;;
12306;SDS011;6216;51.146;7.008;2022-12-07T01:49:17;2.60;;;2.40;;
12306;SDS011;6216;51.146;7.008;2022-12-07T01:51:49;4.07;;;2.20;;
12306;SDS011;6216;51.146;7.008;2022-12-07T01:54:23;3.27;;;2.63;;
12306;SDS011;6216;51.146;7.008;2022-12-07T01:56:53;3.80;;;2.17;;
12306;SDS011;6216;51.146;7.008;2022-12-07T01:59:25;3.47;;;2.60;;
12306;SDS011;6216;51.146;7.008;2022-12-07T02:01:54;3.03;;;2.33;;
12306;SDS011;6216;51.146;7.008;2022-12-07T02:04:23;2.90;;;2.20;;
12306;SDS011;6216;51.146;7.008;2022-12-07T02:06:51;2.47;;;2.23;;
12306;SDS011;6216;51.146;7.008;2022-12-07T02:09:20;2.30;;;2.10;;
12306;SDS011;6216;51.146;7.008;2022-12-07T02:11:48;2.73;;;2.50;;
12306;SDS011;6216;51.146;7.008;2022-12-07T02:14:17;3.83;;;2.30;;
12306;SDS011;6216;51.146;7.008;2022-12-07T02:16:49;4.27;;;2.27;;
12306;SDS011;6216;51.146;7.008;2022-12-07T02:22:31;2.20;;;2.00;;
12306;SDS011;6216;51.146;7.008;2022-12-07T02:25:17;2.73;;;2.17;;
12306;SDS011;6216;51.146;7.008;2022-12-07T02:27:53;3.13;;;2.30;;
12306;SDS011;6216;51.146;7.008;2022-12-07T02:30:30;4.00;;;2.23;;
12306;SDS011;6216;51.146;7.008;2022-12-07T02:33:02;3.63;;;2.20;;
12306;SDS011;6216;51.146;7.008;2022-12-07T02:35:33;3.17;;;2.00;;
12306;SDS011;6216;51.146;7.008;2022-12-07T02:38:08;3.10;;;2.37;;
12306;SDS011;6216;51.146;7.008;2022-12-07T02:40:41;2.80;;;2.13;;
12306;SDS011;6216;51.146;7.008;2022-12-07T02:43:16;2.60;;;2.00;;
12306;SDS011;6216;51.146;7.008;2022-12-07T02:45:49;3.47;;;2.37;;
12306;SDS011;6216;51.146;7.008;2022-12-07T02:48:20;2.67;;;2.13;;
12306;SDS011;6216;51.146;7.008;2022-12-07T02:50:49;2.90;;;2.20;;
12306;SDS011;6216;51.146;7.008;2022-12-07T02:53:33;2.50;;;1.97;;
12306;SDS011;6216;51.146;7.008;2022-12-07T02:56:05;2.57;;;2.30;;
12306;SDS011;6216;51.146;7.008;2022-12-07T02:58:44;2.50;;;2.10;;
12306;SDS011;6216;51.146;7.008;2022-12-07T03:01:26;1.90;;;1.70;;
12306;SDS011;6216;51.146;7.008;2022-12-07T03:03:59;4.23;;;2.20;;
12306;SDS011;6216;51.146;7.008;2022-12-07T03:06:43;2.57;;;2.10;;
12306;SDS011;6216;51.146;7.008;2022-12-07T03:09:20;2.03;;;1.90;;
12306;SDS011;6216;51.146;7.008;2022-12-07T03:11:53;2.10;;;1.90;;
12306;SDS011;6216;51.146;7.008;2022-12-07T03:14:29;3.03;;;2.00;;
12306;SDS011;6216;51.146;7.008;2022-12-07T03:17:02;2.10;;;1.90;;
12306;SDS011;6216;51.146;7.008;2022-12-07T03:19:37;2.50;;;2.03;;
12306;SDS011;6216;51.146;7.008;2022-12-07T03:22:08;2.37;;;1.97;;
12306;SDS011;6216;51.146;7.008;2022-12-07T03:24:39;1.70;;;1.60;;
12306;SDS011;6216;51.146;7.008;2022-12-07T03:27:11;2.10;;;1.73;;
12306;SDS011;6216;51.146;7.008;2022-12-07T03:29:44;2.50;;;2.10;;
12306;SDS011;6216;51.146;7.008;2022-12-07T03:32:21;3.23;;;2.10;;
12306;SDS011;6216;51.146;7.008;2022-12-07T03:34:55;2.33;;;1.83;;
12306;SDS011;6216;51.146;7.008;2022-12-07T03:37:30;2.20;;;2.00;;
12306;SDS011;6216;51.146;7.008;2022-12-07T03:40:04;2.47;;;1.87;;
12306;SDS011;6216;51.146;7.008;2022-12-07T03:42:39;2.20;;;1.93;;
12306;SDS011;6216;51.146;7.008;2022-12-07T03:45:07;2.23;;;2.03;;
12306;SDS011;6216;51.146;7.008;2022-12-07T03:47:41;2.07;;;1.87;;
12306;SDS011;6216;51.146;7.008;2022-12-07T03:50:14;2.07;;;1.73;;
12306;SDS011;6216;51.146;7.008;2022-12-07T03:52:51;2.57;;;2.30;;
12306;SDS011;6216;51.146;7.008;2022-12-07T03:55:24;1.70;;;1.60;;
12306;SDS011;6216;51.146;7.008;2022-12-07T03:57:55;2.53;;;1.77;;
12306;SDS011;6216;51.146;7.008;2022-12-07T04:00:27;3.87;;;2.20;;
12306;SDS011;6216;51.146;7.008;2022-12-07T04:02:56;2.63;;;1.93;;
12306;SDS011;6216;51.146;7.008;2022-12-07T04:05:25;1.80;;;1.70;;
12306;SDS011;6216;51.146;7.008;2022-12-07T04:07:53;2.97;;;2.10;;
12306;SDS011;6216;51.146;7.008;2022-12-07T04:10:21;2.00;;;1.80;;
12306;SDS011;6216;51.146;7.008;2022-12-07T04:12:49;2.00;;;1.90;;
12306;SDS011;6216;51.146;7.008;2022-12-07T04:15:17;2.07;;;1.80;;
12306;SDS011;6216;51.146;7.008;2022-12-07T04:17:45;2.87;;;2.03;;
12306;SDS011;6216;51.146;7.008;2022-12-07T04:20:14;2.77;;;1.93;;
12306;SDS011;6216;51.146;7.008;2022-12-07T04:22:42;2.70;;;2.03;;
12306;SDS011;6216;51.146;7.008;2022-12-07T04:25:10;1.90;;;1.80;;
12306;SDS011;6216;51.146;7.008;2022-12-07T04:27:38;2.00;;;1.80;;
12306;SDS011;6216;51.146;7.008;2022-12-07T04:30:06;1.90;;;1.80;;
12306;SDS011;6216;51.146;7.008;2022-12-07T04:32:35;1.80;;;1.70;;
12306;SDS011;6216;51.146;7.008;2022-12-07T04:35:03;2.20;;;1.80;;
12306;SDS011;6216;51.146;7.008;2022-12-07T04:37:33;1.87;;;1.77;;
12306;SDS011;6216;51.146;7.008;2022-12-07T04:40:01;2.60;;;2.10;;
12306;SDS011;6216;51.146;7.008;2022-12-07T04:42:30;3.50;;;1.90;;
12306;SDS011;6216;51.146;7.008;2022-12-07T04:44:57;2.27;;;1.50;;
12306;SDS011;6216;51.146;7.008;2022-12-07T04:47:25;2.37;;;1.70;;
12306;SDS011;6216;51.146;7.008;2022-12-07T04:49:53;2.07;;;1.80;;
12306;SDS011;6216;51.146;7.008;2022-12-07T04:52:21;2.00;;;1.70;;
12306;SDS011;6216;51.146;7.008;2022-12-07T04:54:50;2.73;;;1.73;;
12306;SDS011;6216;51.146;7.008;2022-12-07T04:57:18;2.87;;;1.73;;
12306;SDS011;6216;51.146;7.008;2022-12-07T04:59:46;1.70;;;1.60;;
12306;SDS011;6216;51.146;7.008;2022-12-07T05:02:14;2.97;;;1.80;;
12306;SDS011;6216;51.146;7.008;2022-12-07T05:04:42;1.90;;;1.60;;
12306;SDS011;6216;51.146;7.008;2022-12-07T05:07:09;2.50;;;2.07;;
12306;SDS011;6216;51.146;7.008;2022-12-07T05:09:37;2.00;;;1.70;;
12306;SDS011;6216;51.146;7.008;2022-12-07T05:12:06;1.67;;;1.53;;
12306;SDS011;6216;51.146;7.008;2022-12-07T05:14:34;1.70;;;1.60;;
12306;SDS011;6216;51.146;7.008;2022-12-07T05:17:02;1.93;;;1.60;;
12306;SDS011;6216;51.146;7.008;2022-12-07T05:19:31;1.67;;;1.57;;
12306;SDS011;6216;51.146;7.008;2022-12-07T05:21:59;1.60;;;1.50;;
12306;SDS011;6216;51.146;7.008;2022-12-07T05:24:27;3.33;;;2.10;;
12306;SDS011;6216;51.146;7.008;2022-12-07T05:26:54;1.90;;;1.77;;
12306;SDS011;6216;51.146;7.008;2022-12-07T05:29:24;2.30;;;1.53;;
12306;SDS011;6216;51.146;7.008;2022-12-07T05:31:51;2.37;;;1.50;;
12306;SDS011;6216;51.146;7.008;2022-12-07T05:34:19;1.60;;;1.50;;
12306;SDS011;6216;51.146;7.008;2022-12-07T05:36:48;1.50;;;1.40;;
12306;SDS011;6216;51.146;7.008;2022-12-07T05:39:16;2.27;;;1.73;;
12306;SDS011;6216;51.146;7.008;2022-12-07T05:41:44;2.20;;;1.67;;
12306;SDS011;6216;51.146;7.008;2022-12-07T05:44:31;1.73;;;1.43;;
12306;SDS011;6216;51.146;7.008;2022-12-07T05:46:58;1.73;;;1.43;;
12306;SDS011;6216;51.146;7.008;2022-12-07T05:49:26;1.43;;;1.30;;
12306;SDS011;6216;51.146;7.008;2022-12-07T05:51:54;2.20;;;1.70;;
12306;SDS011;6216;51.146;7.008;2022-12-07T05:54:22;2.10;;;1.60;;
12306;SDS011;6216;51.146;7.008;2022-12-07T05:56:50;1.43;;;1.30;;
12306;SDS011;6216;51.146;7.008;2022-12-07T05:59:18;1.63;;;1.53;;
12306;SDS011;6216;51.146;7.008;2022-12-07T06:01:53;1.53;;;1.40;;
12306;SDS011;6216;51.146;7.008;2022-12-07T06:04:23;1.40;;;1.30;;
12306;SDS011;6216;51.146;7.008;2022-12-07T06:06:51;1.93;;;1.37;;
12306;SDS011;6216;51.146;7.008;2022-12-07T06:09:20;1.30;;;1.20;;
12306;SDS011;6216;51.146;7.008;2022-12-07T06:11:49;2.37;;;1.47;;
12306;SDS011;6216;51.146;7.008;2022-12-07T06:14:35;1.40;;;1.30;;
12306;SDS011;6216;51.146;7.008;2022-12-07T06:17:04;1.90;;;1.57;;
12306;SDS011;6216;51.146;7.008;2022-12-07T06:19:33;1.80;;;1.40;;
12306;SDS011;6216;51.146;7.008;2022-12-07T06:22:01;1.83;;;1.37;;
12306;SDS011;6216;51.146;7.008;2022-12-07T06:24:30;2.53;;;1.30;;
12306;SDS011;6216;51.146;7.008;2022-12-07T06:26:59;2.37;;;1.30;;
12306;SDS011;6216;51.146;7.008;2022-12-07T06:29:27;1.37;;;1.20;;
12306;SDS011;6216;51.146;7.008;2022-12-07T06:31:54;1.50;;;1.23;;
12306;SDS011;6216;51.146;7.008;2022-12-07T06:34:24;1.80;;;1.50;;
12306;SDS011;6216;51.146;7.008;2022-12-07T06:36:53;2.40;;;1.30;;
12306;SDS011;6216;51.146;7.008;2022-12-07T06:39:22;1.20;;;1.03;;
12306;SDS011;6216;51.146;7.008;2022-12-07T06:41:51;1.43;;;1.20;;
12306;SDS011;6216;51.146;7.008;2022-12-07T06:44:20;1.87;;;1.57;;
12306;SDS011;6216;51.146;7.008;2022-12-07T06:46:48;1.70;;;1.33;;
12306;SDS011;6216;51.146;7.008;2022-12-07T06:49:17;1.77;;;1.43;;
12306;SDS011;6216;51.146;7.008;2022-12-07T06:51:46;1.30;;;1.20;;
12306;SDS011;6216;51.146;7.008;2022-12-07T06:54:14;1.40;;;1.30;;
12306;SDS011;6216;51.146;7.008;2022-12-07T06:56:43;1.40;;;1.30;;
12306;SDS011;6216;51.146;7.008;2022-12-07T06:59:11;1.60;;;1.30;;
12306;SDS011;6216;51.146;7.008;2022-12-07T07:01:38;1.57;;;1.30;;
12306;SDS011;6216;51.146;7.008;2022-12-07T07:04:06;1.20;;;1.10;;
12306;SDS011;6216;51.146;7.008;2022-12-07T07:06:34;1.90;;;1.40;;
12306;SDS011;6216;51.146;7.008;2022-12-07T07:09:03;1.70;;;1.40;;
12306;SDS011;6216;51.146;7.008;2022-12-07T07:11:31;1.20;;;1.10;;
12306;SDS011;6216;51.146;7.008;2022-12-07T07:13:59;1.67;;;1.30;;
12306;SDS011;6216;51.146;7.008;2022-12-07T07:16:28;1.17;;;1.10;;
12306;SDS011;6216;51.146;7.008;2022-12-07T07:18:57;3.17;;;1.73;;
12306;SDS011;6216;51.146;7.008;2022-12-07T07:21:25;1.80;;;1.33;;
12306;SDS011;6216;51.146;7.008;2022-12-07T07:23:53;6.30;;;1.57;;
12306;SDS011;6216;51.146;7.008;2022-12-07T07:26:22;1.43;;;1.27;;
12306;SDS011;6216;51.146;7.008;2022-12-07T07:28:50;3.33;;;1.43;;
12306;SDS011;6216;51.146;7.008;2022-12-07T07:31:18;4.07;;;1.70;;
12306;SDS011;6216;51.146;7.008;2022-12-07T07:33:46;10.47;;;2.00;;
12306;SDS011;6216;51.146;7.008;2022-12-07T07:36:14;7.60;;;1.90;;
12306;SDS011;6216;51.146;7.008;2022-12-07T07:38:42;6.80;;;1.80;;
12306;SDS011;6216;51.146;7.008;2022-12-07T07:41:10;4.30;;;1.70;;
12306;SDS011;6216;51.146;7.008;2022-12-07T07:43:39;10.53;;;1.67;;
12306;SDS011;6216;51.146;7.008;2022-12-07T07:46:07;9.30;;;1.90;;
12306;SDS011;6216;51.146;7.008;2022-12-07T07:48:35;2.70;;;1.43;;
12306;SDS011;6216;51.146;7.008;2022-12-07T07:51:04;5.33;;;1.53;;
12306;SDS011;6216;51.146;7.008;2022-12-07T07:53:33;6.27;;;1.50;;
12306;SDS011;6216;51.146;7.008;2022-12-07T07:56:01;3.33;;;1.30;;
12306;SDS011;6216;51.146;7.008;2022-12-07T07:58:29;17.53;;;2.17;;
12306;SDS011;6216;51.146;7.008;2022-12-07T08:00:58;9.50;;;1.40;;
12306;SDS011;6216;51.146;7.008;2022-12-07T08:03:31;10.03;;;2.30;;
12306;SDS011;6216;51.146;7.008;2022-12-07T08:05:59;3.73;;;2.30;;
12306;SDS011;6216;51.146;7.008;2022-12-07T08:08:28;10.50;;;3.60;;
12306;SDS011;6216;51.146;7.008;2022-12-07T08:10:56;3.77;;;2.80;;
12306;SDS011;6216;51.146;7.008;2022-12-07T08:13:26;7.17;;;3.13;;
12306;SDS011;6216;51.146;7.008;2022-12-07T08:15:57;9.27;;;3.20;;
12306;SDS011;6216;51.146;7.008;2022-12-07T08:18:30;12.40;;;3.43;;
12306;SDS011;6216;51.146;7.008;2022-12-07T08:20:58;15.37;;;3.37;;
12306;SDS011;6216;51.146;7.008;2022-12-07T08:23:27;4.97;;;3.23;;
12306;SDS011;6216;51.146;7.008;2022-12-07T08:26:05;5.57;;;3.10;;
12306;SDS011;6216;51.146;7.008;2022-12-07T08:28:34;4.80;;;2.47;;
12306;SDS011;6216;51.146;7.008;2022-12-07T08:31:04;8.20;;;2.67;;
12306;SDS011;6216;51.146;7.008;2022-12-07T08:33:34;6.13;;;2.37;;
12306;SDS011;6216;51.146;7.008;2022-12-07T08:36:03;7.87;;;2.33;;
12306;SDS011;6216;51.146;7.008;2022-12-07T08:38:33;5.70;;;2.20;;
12306;SDS011;6216;51.146;7.008;2022-12-07T08:41:01;4.50;;;2.03;;
12306;SDS011;6216;51.146;7.008;2022-12-07T08:43:29;5.60;;;2.00;;
12306;SDS011;6216;51.146;7.008;2022-12-07T08:46:03;18.60;;;2.50;;
12306;SDS011;6216;51.146;7.008;2022-12-07T08:48:39;17.17;;;2.17;;
12306;SDS011;6216;51.146;7.008;2022-12-07T08:51:11;5.73;;;1.80;;
12306;SDS011;6216;51.146;7.008;2022-12-07T08:53:39;11.77;;;1.53;;
12306;SDS011;6216;51.146;7.008;2022-12-07T08:56:08;10.77;;;1.83;;
12306;SDS011;6216;51.146;7.008;2022-12-07T08:58:36;6.40;;;1.70;;
12306;SDS011;6216;51.146;7.008;2022-12-07T09:01:06;9.13;;;1.73;;
12306;SDS011;6216;51.146;7.008;2022-12-07T09:03:35;6.20;;;1.60;;
12306;SDS011;6216;51.146;7.008;2022-12-07T09:06:03;10.97;;;1.77;;
12306;SDS011;6216;51.146;7.008;2022-12-07T09:08:33;10.80;;;2.00;;
12306;SDS011;6216;51.146;7.008;2022-12-07T09:11:04;8.47;;;2.10;;
12306;SDS011;6216;51.146;7.008;2022-12-07T09:13:32;8.13;;;1.83;;
12306;SDS011;6216;51.146;7.008;2022-12-07T09:16:00;9.20;;;1.80;;
12306;SDS011;6216;51.146;7.008;2022-12-07T09:18:29;8.87;;;1.53;;
12306;SDS011;6216;51.146;7.008;2022-12-07T09:20:57;10.20;;;2.17;;
12306;SDS011;6216;51.146;7.008;2022-12-07T09:23:25;10.27;;;2.20;;
12306;SDS011;6216;51.146;7.008;2022-12-07T09:25:53;9.60;;;1.40;;
12306;SDS011;6216;51.146;7.008;2022-12-07T09:28:21;8.13;;;1.60;;
12306;SDS011;6216;51.146;7.008;2022-12-07T09:30:48;8.57;;;1.40;;
12306;SDS011;6216;51.146;7.008;2022-12-07T09:33:38;5.47;;;1.50;;
12306;SDS011;6216;51.146;7.008;2022-12-07T09:36:07;10.10;;;1.57;;
12306;SDS011;6216;51.146;7.008;2022-12-07T09:38:36;8.13;;;1.80;;
12306;SDS011;6216;51.146;7.008;2022-12-07T09:41:04;15.27;;;2.13;;
12306;SDS011;6216;51.146;7.008;2022-12-07T09:43:34;14.10;;;2.33;;
12306;SDS011;6216;51.146;7.008;2022-12-07T09:46:03;6.07;;;1.47;;
12306;SDS011;6216;51.146;7.008;2022-12-07T09:48:32;10.60;;;1.50;;
12306;SDS011;6216;51.146;7.008;2022-12-07T09:51:10;6.67;;;1.70;;
12306;SDS011;6216;51.146;7.008;2022-12-07T09:53:49;7.23;;;1.50;;
12306;SDS011;6216;51.146;7.008;2022-12-07T09:56:18;16.00;;;1.63;;
12306;SDS011;6216;51.146;7.008;2022-12-07T09:58:48;6.50;;;2.03;;
12306;SDS011;6216;51.146;7.008;2022-12-07T10:01:19;9.10;;;2.23;;
12306;SDS011;6216;51.146;7.008;2022-12-07T10:03:48;4.83;;;1.43;;
12306;SDS011;6216;51.146;7.008;2022-12-07T10:06:20;4.73;;;1.50;;
12306;SDS011;6216;51.146;7.008;2022-12-07T10:08:48;3.83;;;1.90;;
12306;SDS011;6216;51.146;7.008;2022-12-07T10:11:16;11.53;;;1.73;;
12306;SDS011;6216;51.146;7.008;2022-12-07T10:13:44;9.63;;;1.90;;
12306;SDS011;6216;51.146;7.008;2022-12-07T10:16:27;5.77;;;1.60;;
12306;SDS011;6216;51.146;7.008;2022-12-07T10:19:17;5.50;;;1.67;;
12306;SDS011;6216;51.146;7.008;2022-12-07T10:22:01;12.40;;;1.70;;
12306;SDS011;6216;51.146;7.008;2022-12-07T10:24:32;5.80;;;1.67;;
12306;SDS011;6216;51.146;7.008;2022-12-07T10:27:00;4.23;;;1.40;;
12306;SDS011;6216;51.146;7.008;2022-12-07T10:29:29;7.03;;;1.90;;
12306;SDS011;6216;51.146;7.008;2022-12-07T10:31:59;11.33;;;1.80;;
12306;SDS011;6216;51.146;7.008;2022-12-07T10:34:30;1.93;;;0.93;;
12306;SDS011;6216;51.146;7.008;2022-12-07T10:37:13;8.53;;;1.40;;
12306;SDS011;6216;51.146;7.008;2022-12-07T10:39:43;7.30;;;1.40;;
12306;SDS011;6216;51.146;7.008;2022-12-07T10:42:17;8.00;;;1.60;;
12306;SDS011;6216;51.146;7.008;2022-12-07T10:44:46;6.53;;;1.40;;
12306;SDS011;6216;51.146;7.008;2022-12-07T10:47:25;5.17;;;1.50;;
12306;SDS011;6216;51.146;7.008;2022-12-07T10:50:11;5.60;;;2.10;;
12306;SDS011;6216;51.146;7.008;2022-12-07T10:52:55;4.57;;;1.10;;
12306;SDS011;6216;51.146;7.008;2022-12-07T10:55:42;6.03;;;1.50;;
12306;SDS011;6216;51.146;7.008;2022-12-07T10:58:38;6.47;;;1.57;;
12306;SDS011;6216;51.146;7.008;2022-12-07T11:01:21;7.63;;;1.30;;
12306;SDS011;6216;51.146;7.008;2022-12-07T11:03:55;5.23;;;1.30;;
12306;SDS011;6216;51.146;7.008;2022-12-07T11:06:39;10.40;;;1.87;;
12306;SDS011;6216;51.146;7.008;2022-12-07T11:09:25;5.03;;;1.77;;
12306;SDS011;6216;51.146;7.008;2022-12-07T11:12:29;6.87;;;1.37;;
12306;SDS011;6216;51.146;7.008;2022-12-07T11:15:12;4.67;;;1.27;;
12306;SDS011;6216;51.146;7.008;2022-12-07T11:17:46;5.37;;;1.27;;
12306;SDS011;6216;51.146;7.008;2022-12-07T11:20:28;14.87;;;1.70;;
12306;SDS011;6216;51.146;7.008;2022-12-07T11:23:04;7.70;;;1.87;;
12306;SDS011;6216;51.146;7.008;2022-12-07T11:25:49;5.13;;;1.63;;
12306;SDS011;6216;51.146;7.008;2022-12-07T11:28:26;2.90;;;1.20;;
12306;SDS011;6216;51.146;7.008;2022-12-07T11:31:05;9.37;;;1.73;;
12306;SDS011;6216;51.146;7.008;2022-12-07T11:33:41;3.70;;;1.20;;
12306;SDS011;6216;51.146;7.008;2022-12-07T11:36:18;7.93;;;1.20;;
12306;SDS011;6216;51.146;7.008;2022-12-07T11:39:02;8.80;;;2.13;;
12306;SDS011;6216;51.146;7.008;2022-12-07T11:41:33;5.90;;;1.47;;
12306;SDS011;6216;51.146;7.008;2022-12-07T11:44:05;7.33;;;1.50;;
12306;SDS011;6216;51.146;7.008;2022-12-07T11:46:43;11.20;;;1.70;;
12306;SDS011;6216;51.146;7.008;2022-12-07T11:49:19;4.63;;;2.00;;
12306;SDS011;6216;51.146;7.008;2022-12-07T11:51:51;13.07;;;2.13;;
12306;SDS011;6216;51.146;7.008;2022-12-07T11:54:25;9.93;;;2.27;;
12306;SDS011;6216;51.146;7.008;2022-12-07T11:56:59;4.37;;;1.93;;
12306;SDS011;6216;51.146;7.008;2022-12-07T11:59:36;8.70;;;1.87;;
12306;SDS011;6216;51.146;7.008;2022-12-07T12:02:12;17.27;;;2.03;;
12306;SDS011;6216;51.146;7.008;2022-12-07T12:04:46;9.13;;;2.13;;
12306;SDS011;6216;51.146;7.008;2022-12-07T12:07:21;14.77;;;2.10;;
12306;SDS011;6216;51.146;7.008;2022-12-07T12:10:16;6.97;;;2.10;;
12306;SDS011;6216;51.146;7.008;2022-12-07T12:12:57;9.83;;;1.93;;
12306;SDS011;6216;51.146;7.008;2022-12-07T12:16:00;10.43;;;2.00;;
12306;SDS011;6216;51.146;7.008;2022-12-07T12:18:39;7.17;;;2.17;;
12306;SDS011;6216;51.146;7.008;2022-12-07T12:21:18;8.70;;;2.00;;
12306;SDS011;6216;51.146;7.008;2022-12-07T12:23:50;8.03;;;1.80;;
12306;SDS011;6216;51.146;7.008;2022-12-07T12:26:23;4.47;;;1.90;;
12306;SDS011;6216;51.146;7.008;2022-12-07T12:28:56;5.60;;;1.50;;
12306;SDS011;6216;51.146;7.008;2022-12-07T12:31:31;9.30;;;2.03;;
12306;SDS011;6216;51.146;7.008;2022-12-07T12:34:03;7.03;;;1.50;;
12306;SDS011;6216;51.146;7.008;2022-12-07T12:36:51;2.93;;;1.53;;
12306;SDS011;6216;51.146;7.008;2022-12-07T12:39:22;5.63;;;1.70;;
12306;SDS011;6216;51.146;7.008;2022-12-07T12:41:52;3.87;;;1.30;;
12306;SDS011;6216;51.146;7.008;2022-12-07T12:44:40;9.13;;;1.73;;
12306;SDS011;6216;51.146;7.008;2022-12-07T12:47:39;7.37;;;1.93;;
12306;SDS011;6216;51.146;7.008;2022-12-07T12:50:20;7.90;;;2.07;;
12306;SDS011;6216;51.146;7.008;2022-12-07T12:52:58;4.13;;;1.50;;
12306;SDS011;6216;51.146;7.008;2022-12-07T13:01:51;5.30;;;1.40;;
12306;SDS011;6216;51.146;7.008;2022-12-07T13:04:27;6.73;;;1.53;;
12306;SDS011;6216;51.146;7.008;2022-12-07T13:10:38;9.90;;;1.70;;
12306;SDS011;6216;51.146;7.008;2022-12-07T13:22:40;4.83;;;1.50;;
12306;SDS011;6216;51.146;7.008;2022-12-07T13:25:11;10.50;;;2.00;;
12306;SDS011;6216;51.146;7.008;2022-12-07T13:27:47;6.90;;;1.07;;
12306;SDS011;6216;51.146;7.008;2022-12-07T13:30:19;11.67;;;1.43;;
12306;SDS011;6216;51.146;7.008;2022-12-07T13:32:51;5.67;;;1.63;;
12306;SDS011;6216;51.146;7.008;2022-12-07T13:35:33;11.70;;;1.20;;
12306;SDS011;6216;51.146;7.008;2022-12-07T13:38:17;7.13;;;1.73;;
12306;SDS011;6216;51.146;7.008;2022-12-07T13:41:03;6.20;;;1.33;;
12306;SDS011;6216;51.146;7.008;2022-12-07T13:43:45;4.80;;;1.60;;
12306;SDS011;6216;51.146;7.008;2022-12-07T13:46:16;6.50;;;1.53;;
12306;SDS011;6216;51.146;7.008;2022-12-07T13:48:48;6.73;;;1.40;;
12306;SDS011;6216;51.146;7.008;2022-12-07T13:51:18;13.70;;;2.00;;
12306;SDS011;6216;51.146;7.008;2022-12-07T13:53:50;7.60;;;1.63;;
12306;SDS011;6216;51.146;7.008;2022-12-07T13:56:21;7.27;;;1.40;;
12306;SDS011;6216;51.146;7.008;2022-12-07T13:58:53;10.70;;;1.53;;
12306;SDS011;6216;51.146;7.008;2022-12-07T14:01:21;2.87;;;1.40;;
12306;SDS011;6216;51.146;7.008;2022-12-07T14:03:49;5.83;;;1.37;;
12306;SDS011;6216;51.146;7.008;2022-12-07T14:06:19;9.17;;;1.47;;
12306;SDS011;6216;51.146;7.008;2022-12-07T14:11:50;7.50;;;1.67;;
12306;SDS011;6216;51.146;7.008;2022-12-07T14:14:20;4.20;;;1.30;;
12306;SDS011;6216;51.146;7.008;2022-12-07T14:17:00;5.07;;;1.50;;
12306;SDS011;6216;51.146;7.008;2022-12-07T14:19:44;7.87;;;1.53;;
12306;SDS011;6216;51.146;7.008;2022-12-07T14:22:25;3.47;;;0.97;;
12306;SDS011;6216;51.146;7.008;2022-12-07T14:25:00;6.33;;;1.30;;
12306;SDS011;6216;51.146;7.008;2022-12-07T14:27:47;4.50;;;1.30;;
12306;SDS011;6216;51.146;7.008;2022-12-07T14:30:17;5.30;;;1.37;;
12306;SDS011;6216;51.146;7.008;2022-12-07T14:32:45;2.57;;;1.20;;
12306;SDS011;6216;51.146;7.008;2022-12-07T14:35:17;6.57;;;1.60;;
12306;SDS011;6216;51.146;7.008;2022-12-07T14:37:46;5.27;;;1.47;;
12306;SDS011;6216;51.146;7.008;2022-12-07T14:40:17;4.03;;;1.00;;
12306;SDS011;6216;51.146;7.008;2022-12-07T14:42:47;3.73;;;1.20;;
12306;SDS011;6216;51.146;7.008;2022-12-07T14:45:28;5.03;;;1.30;;
12306;SDS011;6216;51.146;7.008;2022-12-07T14:47:56;7.07;;;1.20;;
12306;SDS011;6216;51.146;7.008;2022-12-07T14:50:44;5.83;;;1.70;;
12306;SDS011;6216;51.146;7.008;2022-12-07T14:53:36;8.40;;;1.60;;
12306;SDS011;6216;51.146;7.008;2022-12-07T14:56:09;6.37;;;1.97;;
12306;SDS011;6216;51.146;7.008;2022-12-07T14:58:36;5.93;;;1.70;;
12306;SDS011;6216;51.146;7.008;2022-12-07T15:01:04;8.03;;;1.70;;
12306;SDS011;6216;51.146;7.008;2022-12-07T15:03:32;13.63;;;2.00;;
